Time;durP1;ratioP1;P1;durP2;ratioP2;P2;SDS_P1;SDS_P2;PMS_P1;PMS_P2;Temp;Humidity;BMP_temperature;BMP_pressure;BME280_temperature;BME280_humidity;BME280_pressure;Samples;Min_cycle;Max_cycle;Signal;HPM_P1;HPM_P2
2021/11/04 00:00:48;;;;;;;18.42;7.15;;;333.10;2329.60;;;;;;5094918;28;20400;-57
2021/11/04 00:03:14;;;;;;;12.50;6.22;;;333.10;2329.60;;;;;;5090690;28;20477;-58
2021/11/04 00:05:39;;;;;;;12.70;6.43;;;333.10;2329.60;;;;;;5094769;28;20031;-58
2021/11/04 00:08:06;;;;;;;13.25;6.28;;;333.20;2329.60;;;;;;5094873;28;20099;-58
2021/11/04 00:10:35;;;;;;;11.55;6.15;;;333.20;2329.60;;;;;;5094879;28;20073;-58
2021/11/04 00:13:01;;;;;;;12.07;5.95;;;333.20;2329.60;;;;;;5094842;28;20023;-58
2021/11/04 00:15:27;;;;;;;14.50;6.57;;;333.20;2329.60;;;;;;5094257;28;20066;-58
2021/11/04 00:17:53;;;;;;;12.13;6.28;;;333.20;2329.60;;;;;;5094894;28;20023;-57
2021/11/04 00:20:19;;;;;;;14.70;6.30;;;333.20;2329.60;;;;;;5094731;28;20032;-58
2021/11/04 00:22:46;;;;;;;15.30;6.38;;;333.20;2329.60;;;;;;5093832;28;20016;-58
2021/11/04 00:25:12;;;;;;;12.27;6.63;;;333.20;2329.60;;;;;;5092926;28;20527;-57
2021/11/04 00:27:39;;;;;;;10.07;5.55;;;333.30;2329.60;;;;;;5092687;28;20481;-57
2021/11/04 00:30:07;;;;;;;13.65;5.80;;;333.30;2329.60;;;;;;5092321;28;20070;-57
2021/11/04 00:32:33;;;;;;;12.68;5.90;;;333.30;2329.60;;;;;;5092314;28;20085;-58
2021/11/04 00:34:59;;;;;;;13.32;5.78;;;333.30;2329.60;;;;;;5093821;28;20031;-58
2021/11/04 00:37:25;;;;;;;11.75;5.65;;;333.30;2329.60;;;;;;5095677;28;20052;-58
2021/11/04 00:39:51;;;;;;;13.60;5.82;;;333.40;2329.60;;;;;;5095758;28;20024;-59
2021/11/04 00:42:16;;;;;;;11.40;5.65;;;333.40;2329.60;;;;;;5095413;28;20028;-58
2021/11/04 00:44:42;;;;;;;15.25;5.63;;;333.40;2329.60;;;;;;5095677;28;20119;-58
2021/11/04 00:47:08;;;;;;;11.60;5.50;;;333.40;2329.60;;;;;;5093761;28;20120;-58
2021/11/04 00:49:33;;;;;;;13.07;5.10;;;333.40;2329.60;;;;;;5093168;28;20028;-58
2021/11/04 00:51:59;;;;;;;12.88;5.32;;;333.40;2329.60;;;;;;5092006;28;20073;-57
2021/11/04 00:54:25;;;;;;;12.10;5.43;;;333.40;2329.60;;;;;;5092579;28;20115;-59
2021/11/04 00:56:51;;;;;;;9.85;5.20;;;333.40;2329.60;;;;;;5092791;28;20107;-58
2021/11/04 00:59:16;;;;;;;11.57;5.43;;;333.50;2329.60;;;;;;5092694;28;20497;-59
2021/11/04 01:01:42;;;;;;;12.18;5.43;;;333.50;2329.60;;;;;;5092565;28;20077;-58
2021/11/04 01:04:08;;;;;;;12.65;5.35;;;333.50;2329.60;;;;;;5092439;28;20096;-58
2021/11/04 01:06:33;;;;;;;11.93;5.38;;;333.50;2329.60;;;;;;5091753;28;20024;-58
2021/11/04 01:08:59;;;;;;;12.00;5.80;;;333.70;2329.60;;;;;;5090978;28;20059;-58
2021/11/04 01:11:25;;;;;;;11.05;4.53;;;333.60;2329.60;;;;;;5092491;28;20039;-58
2021/11/04 01:13:51;;;;;;;11.75;5.18;;;333.60;2329.60;;;;;;5092485;28;20109;-58
2021/11/04 01:16:18;;;;;;;11.65;5.28;;;333.60;2329.60;;;;;;5089519;28;20480;-58
2021/11/04 01:18:45;;;;;;;8.20;4.80;;;333.70;2329.60;;;;;;5090782;28;20066;-58
2021/11/04 01:21:11;;;;;;;11.27;4.55;;;333.70;2329.60;;;;;;5092057;28;20027;-58
2021/11/04 01:23:37;;;;;;;12.90;4.82;;;333.70;2329.60;;;;;;5089406;28;20046;-57
2021/11/04 01:26:03;;;;;;;10.27;4.63;;;333.60;2329.60;;;;;;5092220;28;20091;-58
2021/11/04 01:28:29;;;;;;;10.52;4.32;;;333.60;2329.60;;;;;;5092169;28;20024;-57
2021/11/04 01:30:55;;;;;;;9.07;4.13;;;333.60;2329.60;;;;;;5091301;28;20020;-58
2021/11/04 01:33:21;;;;;;;11.05;4.25;;;333.60;2329.60;;;;;;5091894;28;20381;-58
2021/11/04 01:35:46;;;;;;;12.65;4.47;;;333.60;2329.60;;;;;;5091699;28;20024;-58
2021/11/04 01:38:12;;;;;;;10.30;4.38;;;333.70;2329.60;;;;;;5092029;28;20032;-57
2021/11/04 01:40:40;;;;;;;7.82;3.85;;;333.70;2329.60;;;;;;5091964;28;20031;-58
2021/11/04 01:43:06;;;;;;;8.23;3.92;;;333.70;2329.60;;;;;;5091411;28;20032;-58
2021/11/04 01:45:32;;;;;;;10.57;3.90;;;333.70;2329.60;;;;;;5091945;28;20477;-58
2021/11/04 01:48:01;;;;;;;9.68;3.92;;;358.40;2329.60;;;;;;5091780;28;20024;-58
2021/11/04 01:50:27;;;;;;;9.25;4.10;;;358.40;2329.60;;;;;;5091360;28;20093;-57
2021/11/04 01:52:52;;;;;;;7.78;3.97;;;358.40;2329.60;;;;;;5090245;28;20355;-58
2021/11/04 01:55:24;;;;;;;10.82;4.32;;;358.40;2329.60;;;;;;5091229;28;20036;-57
2021/11/04 01:57:51;;;;;;;9.68;4.05;;;358.40;2329.60;;;;;;5091364;28;20093;-58
2021/11/04 02:00:19;;;;;;;7.78;3.92;;;358.50;2329.60;;;;;;5091382;28;20055;-58
2021/11/04 02:03:08;;;;;;;8.20;4.15;;;358.50;2329.60;;;;;;5091163;28;20048;-58
2021/11/04 02:05:44;;;;;;;8.82;3.97;;;358.50;2329.60;;;;;;5088962;28;20131;-59
2021/11/04 02:08:20;;;;;;;9.95;3.90;;;358.60;2329.60;;;;;;5091069;28;20023;-58
2021/11/04 02:10:53;;;;;;;10.63;3.80;;;358.70;2329.60;;;;;;5091290;28;20070;-59
2021/11/04 02:13:57;;;;;;;7.90;3.95;;;358.70;2329.60;;;;;;5091182;28;20105;-58
2021/11/04 02:16:24;;;;;;;8.38;3.50;;;358.70;2329.60;;;;;;5008741;28;20163;-58
2021/11/04 02:18:53;;;;;;;9.30;3.72;;;358.70;2329.60;;;;;;5008442;28;20026;-58
2021/11/04 02:21:21;;;;;;;6.85;3.47;;;358.80;2329.60;;;;;;5008709;28;20037;-58
2021/11/04 02:23:50;;;;;;;7.13;3.63;;;358.80;2329.60;;;;;;5008504;28;20050;-58
2021/11/04 02:26:16;;;;;;;8.50;3.72;;;358.90;2329.60;;;;;;5008625;28;20201;-58
2021/11/04 02:28:43;;;;;;;10.15;3.60;;;358.90;2329.60;;;;;;5008559;28;20022;-58
2021/11/04 02:31:10;;;;;;;6.68;3.28;;;359.00;2329.60;;;;;;5008546;28;20156;-58
2021/11/04 02:33:38;;;;;;;7.63;3.40;;;359.00;2329.60;;;;;;5008687;28;20037;-58
2021/11/04 02:36:07;;;;;;;6.75;3.45;;;359.00;2329.60;;;;;;5008414;28;20034;-58
2021/11/04 02:38:33;;;;;;;7.10;3.45;;;359.00;2329.60;;;;;;5008800;28;20135;-58
2021/11/04 02:41:01;;;;;;;7.35;3.50;;;359.00;2329.60;;;;;;4992760;28;20523;-58
2021/11/04 02:43:30;;;;;;;8.68;3.47;;;359.00;2329.60;;;;;;5010171;28;20131;-58
2021/11/04 02:45:57;;;;;;;10.10;3.80;;;359.00;2329.60;;;;;;5010295;28;20041;-58
2021/11/04 02:48:23;;;;;;;7.97;3.60;;;359.00;2329.60;;;;;;5010282;28;20030;-58
2021/11/04 02:50:53;;;;;;;8.20;3.90;;;359.00;2329.60;;;;;;5069052;28;20032;-58
2021/11/04 02:53:23;;;;;;;7.82;3.85;;;359.00;2329.60;;;;;;5089675;28;20043;-59
2021/11/04 02:55:50;;;;;;;7.95;3.83;;;359.00;2329.60;;;;;;5092373;28;20069;-57
2021/11/04 02:58:17;;;;;;;8.27;3.78;;;359.10;2329.60;;;;;;5092180;28;20377;-58
2021/11/04 03:00:49;;;;;;;8.35;3.63;;;359.10;2329.60;;;;;;5092169;28;20113;-57
2021/11/04 03:03:15;;;;;;;5.57;3.35;;;359.10;2329.60;;;;;;5091865;28;20035;-58
2021/11/04 03:05:41;;;;;;;8.35;3.20;;;359.10;2329.60;;;;;;5092134;28;20551;-58
2021/11/04 03:08:06;;;;;;;9.55;3.50;;;359.10;2329.60;;;;;;5091657;28;20024;-58
2021/11/04 03:10:33;;;;;;;8.07;3.55;;;359.10;2329.60;;;;;;5094835;28;20061;-58
2021/11/04 03:12:58;;;;;;;7.97;3.38;;;359.10;2329.60;;;;;;5096430;28;20440;-58
2021/11/04 03:15:24;;;;;;;6.20;3.13;;;359.10;2329.60;;;;;;5096105;28;20044;-58
2021/11/04 03:17:53;;;;;;;8.32;3.58;;;359.10;2329.60;;;;;;5096129;28;20020;-59
2021/11/04 03:20:20;;;;;;;7.78;3.28;;;359.20;2329.60;;;;;;5095981;28;20534;-59
2021/11/04 03:22:47;;;;;;;10.07;3.83;;;359.30;2329.60;;;;;;5095175;28;20074;-58
2021/11/04 03:25:17;;;;;;;7.18;3.00;;;359.30;2329.60;;;;;;5093129;28;20465;-58
2021/11/04 03:27:45;;;;;;;5.70;3.30;;;384.00;2329.60;;;;;;5096035;28;20103;-58
2021/11/04 03:30:14;;;;;;;7.28;3.45;;;384.10;2329.60;;;;;;5095847;28;20024;-58
2021/11/04 03:32:42;;;;;;;6.70;3.15;;;384.10;2329.60;;;;;;5095944;28;20024;-58
2021/11/04 03:35:10;;;;;;;7.53;2.90;;;384.20;2329.60;;;;;;5095824;28;20028;-58
2021/11/04 03:37:39;;;;;;;5.95;2.80;;;384.20;2329.60;;;;;;5092920;28;20048;-58
2021/11/04 03:40:06;;;;;;;8.80;3.10;;;384.20;2329.60;;;;;;5095664;28;20050;-58
2021/11/04 03:42:32;;;;;;;7.32;3.47;;;384.10;2329.60;;;;;;5095656;28;20070;-57
2021/11/04 03:45:00;;;;;;;6.93;3.35;;;384.20;2329.60;;;;;;5095480;28;20049;-59
2021/11/04 03:47:30;;;;;;;4.97;2.90;;;384.10;2329.60;;;;;;5096802;28;20107;-59
2021/11/04 03:49:58;;;;;;;8.45;3.40;;;384.20;2329.60;;;;;;5096479;28;20055;-59
2021/11/04 03:52:24;;;;;;;9.57;3.78;;;384.20;2329.60;;;;;;5095123;28;20111;-59
2021/11/04 03:54:50;;;;;;;9.13;3.33;;;384.10;2329.60;;;;;;5094794;28;20032;-58
2021/11/04 03:57:18;;;;;;;7.95;3.38;;;384.10;2329.60;;;;;;5094330;28;20108;-59
2021/11/04 03:59:45;;;;;;;7.78;3.75;;;384.00;2329.60;;;;;;5095864;28;20042;-58
2021/11/04 04:02:12;;;;;;;6.32;2.97;;;384.00;2329.60;;;;;;5096119;28;20016;-58
2021/11/04 04:04:39;;;;;;;9.02;3.75;;;384.00;2329.60;;;;;;5093271;28;20044;-58
2021/11/04 04:07:05;;;;;;;6.30;3.22;;;384.50;2329.60;;;;;;5095027;28;20031;-58
2021/11/04 04:09:31;;;;;;;9.38;3.75;;;384.20;2329.60;;;;;;5094297;28;20024;-58
2021/11/04 04:11:57;;;;;;;7.05;3.17;;;384.20;2329.60;;;;;;5095484;28;20028;-58
2021/11/04 04:14:22;;;;;;;5.93;3.60;;;384.20;2329.60;;;;;;5094892;28;20496;-57
2021/11/04 04:16:49;;;;;;;6.10;3.30;;;384.20;2329.60;;;;;;5095229;28;20046;-59
2021/11/04 04:19:15;;;;;;;11.35;4.15;;;384.30;2329.60;;;;;;5095011;28;20032;-58
2021/11/04 04:21:41;;;;;;;8.20;3.50;;;384.30;2329.60;;;;;;5095283;28;20531;-58
2021/11/04 04:24:06;;;;;;;7.22;3.40;;;384.30;2329.60;;;;;;5094658;28;20044;-58
2021/11/04 04:26:32;;;;;;;5.10;3.30;;;384.30;2329.60;;;;;;5094920;28;20077;-59
2021/11/04 04:28:58;;;;;;;6.82;3.40;;;384.30;2329.60;;;;;;5095067;28;20031;-58
2021/11/04 04:31:24;;;;;;;9.23;3.28;;;384.30;2329.60;;;;;;5094599;28;20103;-58
2021/11/04 04:33:49;;;;;;;14.63;5.63;;;384.40;2329.60;;;;;;5094336;28;20036;-57
2021/11/04 04:36:15;;;;;;;12.77;5.70;;;384.50;2329.60;;;;;;5094536;28;20401;-58
2021/11/04 04:38:41;;;;;;;10.35;4.07;;;384.50;2329.60;;;;;;5094733;28;20027;-59
2021/11/04 04:41:07;;;;;;;10.40;4.55;;;384.60;2329.60;;;;;;5094839;28;20032;-59
2021/11/04 04:43:33;;;;;;;9.48;3.85;;;384.70;2329.60;;;;;;5094451;28;20035;-59
2021/11/04 04:45:59;;;;;;;10.77;3.80;;;384.80;2329.60;;;;;;5094377;28;20099;-59
2021/11/04 04:48:25;;;;;;;9.18;3.45;;;384.80;2329.60;;;;;;5094421;28;20545;-58
2021/11/04 04:50:51;;;;;;;7.60;3.45;;;384.90;2329.60;;;;;;5094395;28;20091;-59
2021/11/04 04:53:17;;;;;;;9.73;4.60;;;384.90;2329.60;;;;;;5093688;28;20028;-58
2021/11/04 04:55:43;;;;;;;13.00;4.50;;;409.60;2355.20;;;;;;5094325;28;20055;-58
2021/11/04 04:58:08;;;;;;;10.05;3.95;;;409.60;2355.20;;;;;;5091700;28;20028;-58
2021/11/04 05:00:35;;;;;;;14.52;4.20;;;409.70;2355.20;;;;;;5094221;28;20028;-58
2021/11/04 05:03:01;;;;;;;6.40;3.00;;;409.70;2355.20;;;;;;5093902;28;20016;-59
2021/11/04 05:05:26;;;;;;;9.63;3.17;;;409.80;2355.20;;;;;;5094000;28;20035;-58
2021/11/04 05:07:52;;;;;;;11.43;4.03;;;409.80;2355.20;;;;;;5093793;28;20065;-58
2021/11/04 05:10:18;;;;;;;12.27;3.97;;;409.80;2355.20;;;;;;5094128;28;20525;-59
2021/11/04 05:12:45;;;;;;;12.93;4.72;;;409.80;2355.20;;;;;;5093867;28;20405;-58
2021/11/04 05:15:11;;;;;;;14.82;3.80;;;409.80;2355.20;;;;;;5093699;28;20027;-58
2021/11/04 05:17:37;;;;;;;14.73;5.38;;;409.90;2355.20;;;;;;5093708;28;20600;-58
2021/11/04 05:20:05;;;;;;;13.68;6.82;;;409.90;2355.20;;;;;;5093729;28;20024;-58
2021/11/04 05:22:31;;;;;;;17.52;5.93;;;409.90;2355.20;;;;;;5091147;28;20106;-58
2021/11/04 05:24:56;;;;;;;14.38;4.43;;;409.90;2355.20;;;;;;5093859;28;20111;-58
2021/11/04 05:27:22;;;;;;;9.43;3.38;;;409.90;2355.20;;;;;;5093369;28;20465;-58
2021/11/04 05:29:48;;;;;;;9.98;3.47;;;409.90;2355.20;;;;;;5093523;28;20028;-58
2021/11/04 05:32:16;;;;;;;8.38;3.40;;;409.90;2355.20;;;;;;5093080;28;20023;-58
2021/11/04 05:34:42;;;;;;;10.90;3.60;;;410.00;2355.20;;;;;;5093227;28;20028;-58
2021/11/04 05:37:08;;;;;;;10.52;3.10;;;410.00;2355.20;;;;;;5093230;28;20048;-58
2021/11/04 05:39:38;;;;;;;9.35;3.33;;;409.60;2355.20;;;;;;5093622;28;20114;-58
2021/11/04 05:42:05;;;;;;;7.75;3.38;;;410.00;2355.20;;;;;;5093681;28;20036;-58
2021/11/04 05:44:31;;;;;;;11.98;4.78;;;410.10;2355.20;;;;;;5093258;28;20114;-59
2021/11/04 05:46:57;;;;;;;14.90;5.88;;;410.10;2355.20;;;;;;5093327;28;20565;-58
2021/11/04 05:49:23;;;;;;;17.45;6.40;;;410.10;2355.20;;;;;;5093713;28;20024;-58
2021/11/04 05:51:49;;;;;;;20.08;5.82;;;410.10;2355.20;;;;;;5093472;28;20495;-59
2021/11/04 05:54:15;;;;;;;13.00;4.60;;;410.10;2355.20;;;;;;5093362;28;20035;-57
2021/11/04 05:56:40;;;;;;;11.73;4.43;;;410.10;2355.20;;;;;;5092255;28;20111;-58
2021/11/04 05:59:06;;;;;;;12.98;5.88;;;410.10;2355.20;;;;;;5092326;28;20020;-59
2021/11/04 06:01:32;;;;;;;10.73;4.88;;;410.10;2355.20;;;;;;5092461;28;20423;-59
2021/11/04 06:03:58;;;;;;;10.52;4.03;;;410.10;2355.20;;;;;;5093296;28;20363;-57
2021/11/04 06:06:24;;;;;;;9.40;3.47;;;410.10;2355.20;;;;;;5093300;28;20080;-58
2021/11/04 06:08:49;;;;;;;12.77;4.60;;;410.20;2355.20;;;;;;5092661;28;20069;-59
2021/11/04 06:11:15;;;;;;;13.07;5.20;;;410.20;2355.20;;;;;;5093437;28;20024;-59
2021/11/04 06:13:41;;;;;;;9.10;3.80;;;410.30;2355.20;;;;;;5093026;28;20032;-60
2021/11/04 06:16:13;;;;;;;9.63;4.07;;;410.30;2355.20;;;;;;5093291;28;20029;-58
2021/11/04 06:18:40;;;;;;;9.25;3.55;;;410.40;2355.20;;;;;;5093112;28;20024;-59
2021/11/04 06:21:05;;;;;;;8.52;3.13;;;410.50;2355.20;;;;;;5093100;28;20028;-59
2021/11/04 06:23:31;;;;;;;11.38;3.47;;;435.20;2355.20;;;;;;5092880;28;20038;-59
2021/11/04 06:25:57;;;;;;;7.20;2.72;;;435.30;2355.20;;;;;;5093327;28;20383;-59
2021/11/04 06:28:22;;;;;;;8.80;3.40;;;435.40;2355.20;;;;;;5092803;28;20477;-58
2021/11/04 06:30:48;;;;;;;6.18;2.95;;;435.50;2355.20;;;;;;5092573;28;20020;-59
2021/11/04 06:33:14;;;;;;;11.68;3.20;;;435.60;2355.20;;;;;;5092940;28;20513;-59
2021/11/04 06:35:40;;;;;;;7.32;2.90;;;435.80;2355.20;;;;;;5092854;28;20530;-58
2021/11/04 06:38:06;;;;;;;10.45;2.97;;;436.00;2355.20;;;;;;5092662;28;20063;-58
2021/11/04 06:40:32;;;;;;;9.90;3.33;;;436.10;2355.20;;;;;;5093077;28;20027;-58
2021/11/04 06:42:58;;;;;;;9.93;3.05;;;461.00;2380.80;;;;;;5092901;28;20393;-58
2021/11/04 06:45:24;;;;;;;10.38;3.15;;;461.20;2380.80;;;;;;5091841;28;20032;-60
2021/11/04 06:47:52;;;;;;;10.07;3.10;;;461.20;2380.80;;;;;;5092854;28;20063;-59
2021/11/04 06:50:20;;;;;;;10.00;3.10;;;461.30;2380.80;;;;;;5092771;28;20063;-58
2021/11/04 06:53:10;;;;;;;8.73;3.08;;;461.30;2380.80;;;;;;5092393;28;20047;-58
2021/11/04 06:55:43;;;;;;;9.65;3.85;;;461.30;2380.80;;;;;;5030336;28;20037;-59
2021/11/04 06:58:17;;;;;;;10.43;4.00;;;461.40;2380.80;;;;;;5030135;28;20064;-58
2021/11/04 07:00:47;;;;;;;11.95;3.75;;;461.50;2380.80;;;;;;5030076;28;20048;-59
2021/11/04 07:03:26;;;;;;;9.13;2.97;;;461.60;2380.80;;;;;;5030158;28;20048;-59
2021/11/04 07:06:11;;;;;;;;;;;461.50;2380.80;;;;;;5030750;28;20104;-58
2021/11/04 07:08:42;;;;;;;;;;;486.70;2380.80;;;;;;5030077;28;19940;-59
2021/11/04 07:11:09;;;;;;;10.50;3.60;;;487.30;2380.80;;;;;;5029911;28;19925;-58
2021/11/04 07:13:35;;;;;;;9.23;3.83;;;512.00;2380.80;;;;;;5029510;28;20033;-58
2021/11/04 07:16:02;;;;;;;13.50;5.15;;;487.20;2380.80;;;;;;5030305;28;20029;-59
2021/11/04 07:18:28;;;;;;;12.43;4.70;;;538.40;2406.40;;;;;;5030128;28;20034;-59
2021/11/04 07:21:05;;;;;;;16.42;5.70;;;538.40;2329.60;;;;;;5030293;28;20036;-59
2021/11/04 07:23:40;;;;;;;14.98;5.90;;;537.90;2406.40;;;;;;5030102;28;20029;-59
2021/11/04 07:26:06;;;;;;;;;;;512.80;2380.80;;;;;;5030633;28;20049;-59
2021/11/04 07:28:32;;;;;;;21.80;10.38;;;512.70;2380.80;;;;;;5029358;28;19909;-59
2021/11/04 07:30:58;;;;;;;9.70;3.70;;;537.70;2406.40;;;;;;5030540;28;20045;-60
2021/11/04 07:33:28;;;;;;;9.85;3.60;;;512.80;2380.80;;;;;;5066532;28;20048;-58
2021/11/04 07:35:57;;;;;;;8.00;2.88;;;512.60;2380.80;;;;;;5072731;28;20550;-58
2021/11/04 07:38:26;;;;;;;11.40;3.85;;;512.30;2380.80;;;;;;5073790;28;20032;-58
2021/11/04 07:40:52;;;;;;;11.38;4.80;;;512.20;2380.80;;;;;;5093133;28;20021;-60
2021/11/04 07:43:19;;;;;;;10.48;2.70;;;512.20;2380.80;;;;;;5093076;28;20488;-59
2021/11/04 07:45:45;;;;;;;9.93;2.72;;;512.00;2380.80;;;;;;5092909;28;20372;-58
2021/11/04 07:48:10;;;;;;;9.70;4.00;;;512.00;2380.80;;;;;;5073934;28;20029;-57
2021/11/04 07:50:36;;;;;;;15.02;8.27;;;512.40;2380.80;;;;;;5071441;28;20107;-58
2021/11/04 07:53:02;;;;;;;22.02;11.07;;;512.60;2380.80;;;;;;5072191;28;20074;-58
2021/11/04 07:55:28;;;;;;;22.73;7.45;;;512.50;2380.80;;;;;;5072609;28;20124;-59
2021/11/04 07:57:55;;;;;;;27.05;17.60;;;512.60;2380.80;;;;;;5075689;28;20036;-60
2021/11/04 08:00:23;;;;;;;14.55;6.07;;;512.60;2380.80;;;;;;5078014;28;20039;-59
2021/11/04 08:02:48;;;;;;;23.35;11.65;;;512.60;2380.80;;;;;;5087796;28;20028;-59
2021/11/04 08:05:17;;;;;;;22.23;11.77;;;512.80;2380.80;;;;;;5095854;28;20032;-58
2021/11/04 08:07:43;;;;;;;26.00;18.98;;;538.20;2406.40;;;;;;5096146;28;20163;-57
2021/11/04 08:10:11;;;;;;;18.58;6.88;;;563.60;2329.60;;;;;;5094598;28;20051;-59
2021/11/04 08:12:37;;;;;;;10.43;3.65;;;588.80;2252.80;;;;;;5097568;28;20079;-59
2021/11/04 08:15:05;;;;;;;13.23;4.13;;;589.30;2124.80;;;;;;5097257;28;20024;-59
2021/11/04 08:17:31;;;;;;;12.90;4.63;;;589.00;2150.40;;;;;;5094474;27;20040;-60
2021/11/04 08:19:57;;;;;;;10.63;3.60;;;588.90;2150.40;;;;;;5094194;28;20477;-60
2021/11/04 08:22:23;;;;;;;14.10;4.60;;;564.00;2176.00;;;;;;5094004;28;20089;-59
2021/11/04 08:24:49;;;;;;;12.48;4.65;;;563.80;2227.20;;;;;;5094573;28;20055;-58
2021/11/04 08:27:16;;;;;;;16.20;6.90;;;563.60;2252.80;;;;;;5093420;28;20044;-58
2021/11/04 08:29:42;;;;;;;19.08;8.48;;;563.50;2304.00;;;;;;5098638;28;20024;-60
2021/11/04 08:32:10;;;;;;;14.13;6.78;;;563.30;2304.00;;;;;;5093218;28;20172;-59
2021/11/04 08:34:36;;;;;;;16.30;4.72;;;563.50;2304.00;;;;;;5094006;28;20026;-59
2021/11/04 08:37:03;;;;;;;26.15;8.23;;;563.70;2252.80;;;;;;5093885;28;20060;-59
2021/11/04 08:39:29;;;;;;;21.55;9.38;;;589.20;2150.40;;;;;;5094256;28;20400;-59
2021/11/04 08:41:56;;;;;;;21.83;10.68;;;614.50;2099.20;;;;;;5093929;28;20040;-59
2021/11/04 08:44:22;;;;;;;17.60;7.97;;;640.00;1971.20;;;;;;5090932;28;20043;-59
2021/11/04 08:46:48;;;;;;;14.73;5.68;;;615.20;1945.60;;;;;;5093278;28;20441;-59
2021/11/04 08:49:14;;;;;;;16.38;7.35;;;615.30;1920.00;;;;;;5093918;28;20103;-60
2021/11/04 08:51:40;;;;;;;17.10;7.30;;;640.10;1920.00;;;;;;5093480;28;20108;-59
2021/11/04 08:54:07;;;;;;;12.43;5.18;;;640.50;1817.60;;;;;;5094223;28;20028;-59
2021/11/04 08:56:37;;;;;;;12.45;4.30;;;640.90;1766.40;;;;;;5093400;28;20027;-59
2021/11/04 08:59:06;;;;;;;11.45;2.97;;;691.50;1638.40;;;;;;5091165;28;20050;-60
2021/11/04 09:01:35;;;;;;;14.20;3.53;;;691.80;1587.20;;;;;;5091211;28;20035;-60
2021/11/04 09:04:00;;;;;;;10.32;3.65;;;692.10;1536.00;;;;;;5090793;28;20089;-59
2021/11/04 09:06:26;;;;;;;13.07;4.10;;;691.50;1561.60;;;;;;5093106;28;20024;-59
2021/11/04 09:08:52;;;;;;;10.93;3.38;;;691.40;1561.60;;;;;;5092243;28;20035;-60
2021/11/04 09:11:18;;;;;;;14.50;3.20;;;716.80;1510.40;;;;;;5093390;28;20017;-59
2021/11/04 09:13:44;;;;;;;14.57;3.40;;;691.50;1484.80;;;;;;5092013;28;20109;-59
2021/11/04 09:16:10;;;;;;;10.00;2.55;;;691.60;1510.40;;;;;;5086804;28;20016;-59
2021/11/04 09:18:36;;;;;;;13.98;3.60;;;691.30;1510.40;;;;;;5099107;27;20040;-59
2021/11/04 09:21:01;;;;;;;12.55;3.38;;;691.90;1484.80;;;;;;5093556;28;20027;-59
2021/11/04 09:23:27;;;;;;;10.18;3.50;;;716.80;1459.20;;;;;;5091851;28;20048;-59
2021/11/04 09:25:53;;;;;;;13.00;4.45;;;692.10;1459.20;;;;;;5093571;28;20103;-58
2021/11/04 09:28:19;;;;;;;15.77;5.55;;;716.90;1459.20;;;;;;5093045;28;20390;-59
2021/11/04 09:30:44;;;;;;;15.55;5.22;;;717.40;1408.00;;;;;;5091423;28;20032;-59
2021/11/04 09:33:11;;;;;;;13.23;4.97;;;717.40;1408.00;;;;;;5092415;28;20043;-59
2021/11/04 09:35:37;;;;;;;12.48;4.78;;;717.30;1433.60;;;;;;5093001;28;20049;-59
2021/11/04 09:38:04;;;;;;;14.65;5.20;;;742.90;1356.80;;;;;;5093075;28;20044;-59
2021/11/04 09:40:30;;;;;;;16.13;6.20;;;793.60;1280.00;;;;;;5093000;28;20603;-58
2021/11/04 09:42:56;;;;;;;17.83;8.18;;;793.70;1280.00;;;;;;5093151;28;20119;-58
2021/11/04 09:45:24;;;;;;;18.73;8.45;;;768.10;1305.60;;;;;;5092226;28;20363;-58
2021/11/04 09:47:49;;;;;;;12.10;5.07;;;768.00;1331.20;;;;;;5093055;28;20051;-58
2021/11/04 09:50:18;;;;;;;46.80;21.92;;;742.40;1408.00;;;;;;5092877;28;20076;-59
2021/11/04 09:52:46;;;;;;;50.00;38.63;;;742.60;1408.00;;;;;;5092711;28;20482;-58
2021/11/04 09:55:19;;;;;;;25.13;19.02;;;743.00;1382.40;;;;;;5092727;28;20036;-58
2021/11/04 09:57:50;;;;;;;75.40;65.88;;;743.00;1382.40;;;;;;5092838;28;20363;-60
2021/11/04 10:00:17;;;;;;;22.48;14.23;;;793.60;1280.00;;;;;;5091297;28;20036;-59
2021/11/04 10:02:44;;;;;;;44.67;31.00;;;844.80;1228.80;;;;;;5085477;28;20036;-60
2021/11/04 10:05:14;;;;;;;15.95;7.10;;;871.20;1049.60;;;;;;5088134;28;20031;-59
2021/11/04 10:07:50;;;;;;;12.20;5.05;;;921.60;998.40;;;;;;5092094;28;20036;-58
2021/11/04 10:10:19;;;;;;;15.75;4.72;;;871.00;1024.00;;;;;;5092505;28;20090;-58
2021/11/04 10:12:56;;;;;;;19.83;6.97;;;845.30;1100.80;;;;;;5092391;28;20381;-57
2021/11/04 10:15:22;;;;;;;19.48;8.05;;;870.50;1075.20;;;;;;5091672;28;20051;-58
2021/11/04 10:17:48;;;;;;;16.73;6.40;;;896.70;972.80;;;;;;5094235;28;20168;-58
2021/11/04 10:20:19;;;;;;;17.52;7.45;;;871.00;1024.00;;;;;;5092093;28;20024;-60
2021/11/04 10:23:08;;;;;;;19.15;9.32;;;845.60;1075.20;;;;;;5089773;28;20030;-59
2021/11/04 10:25:34;;;;;;;17.42;8.70;;;845.60;1049.60;;;;;;5091323;28;20032;-58
2021/11/04 10:28:19;;;;;;;34.58;18.35;;;870.50;1024.00;;;;;;5089221;28;20583;-58
2021/11/04 10:30:45;;;;;;;18.65;13.45;;;844.90;1049.60;;;;;;5091313;28;20016;-58
2021/11/04 10:33:24;;;;;;;18.52;10.00;;;819.50;1075.20;;;;;;5089950;28;20035;-58
2021/11/04 10:35:59;;;;;;;21.77;13.23;;;845.40;1024.00;;;;;;5091656;28;20154;-58
2021/11/04 10:38:40;;;;;;;21.58;14.65;;;845.60;1024.00;;;;;;5089038;28;20036;-58
2021/11/04 10:41:08;;;;;;;30.33;24.08;;;871.30;947.20;;;;;;5089091;28;20048;-58
2021/11/04 10:43:35;;;;;;;13.60;7.55;;;921.70;921.60;;;;;;5091632;28;20089;-58
2021/11/04 10:46:07;;;;;;;16.58;11.07;;;947.20;896.00;;;;;;5085437;28;20032;-58
2021/11/04 10:48:36;;;;;;;15.27;6.22;;;947.50;870.40;;;;;;5111116;27;20498;-58
2021/11/04 10:51:02;;;;;;;18.85;7.82;;;973.50;844.80;;;;;;5092308;28;20016;-58
2021/11/04 10:53:28;;;;;;;10.38;3.50;;;973.60;819.20;;;;;;5092512;28;20036;-58
2021/11/04 10:56:14;;;;;;;10.25;3.17;;;973.10;819.20;;;;;;5091819;28;20493;-58
2021/11/04 10:58:40;;;;;;;12.00;4.60;;;973.10;819.20;;;;;;5089361;28;20028;-58
2021/11/04 11:01:06;;;;;;;8.68;3.90;;;972.80;819.20;;;;;;5091198;28;20031;-58
2021/11/04 11:03:32;;;;;;;8.55;3.70;;;896.90;870.40;;;;;;5090504;28;20036;-58
2021/11/04 11:06:06;;;;;;;10.57;3.30;;;870.90;947.20;;;;;;5092052;28;20020;-58
2021/11/04 11:08:33;;;;;;;8.55;3.30;;;845.10;998.40;;;;;;5092408;28;20115;-58
2021/11/04 11:10:58;;;;;;;9.60;4.50;;;819.50;1024.00;;;;;;5092616;28;20031;-57
2021/11/04 11:13:24;;;;;;;14.35;7.78;;;794.10;1100.80;;;;;;5092129;28;20048;-57
2021/11/04 11:15:55;;;;;;;11.85;4.47;;;793.60;1152.00;;;;;;5092064;28;20021;-57
2021/11/04 11:18:23;;;;;;;9.15;3.92;;;794.20;1100.80;;;;;;5109951;27;20062;-57
2021/11/04 11:20:50;;;;;;;8.15;3.58;;;845.30;1024.00;;;;;;5108750;28;20020;-57
2021/11/04 11:23:25;;;;;;;11.27;4.45;;;870.80;972.80;;;;;;5089662;28;20060;-57
2021/11/04 11:25:57;;;;;;;13.65;4.97;;;921.60;921.60;;;;;;5090789;28;20118;-58
2021/11/04 11:28:30;;;;;;;10.45;3.83;;;921.70;947.20;;;;;;5090708;28;20033;-58
2021/11/04 11:31:13;;;;;;;12.88;4.72;;;896.30;947.20;;;;;;5092823;28;20431;-58
2021/11/04 11:33:41;;;;;;;11.82;5.40;;;870.50;998.40;;;;;;5095345;28;20044;-57
2021/11/04 11:36:16;;;;;;;10.85;4.88;;;845.40;1049.60;;;;;;5096571;28;20036;-58
2021/11/04 11:38:58;;;;;;;13.05;5.85;;;819.50;1100.80;;;;;;5095483;28;20063;-57
2021/11/04 11:41:24;;;;;;;;;;;794.10;1177.60;;;;;;5096076;28;20036;-57
2021/11/04 11:43:51;;;;;;;20.08;4.95;;;768.30;1228.80;;;;;;5095726;28;19961;-56
2021/11/04 11:46:17;;;;;;;11.07;4.68;;;742.80;1305.60;;;;;;5095522;28;20024;-56
2021/11/04 11:48:42;;;;;;;10.30;3.20;;;717.60;1331.20;;;;;;5096787;28;20090;-57
2021/11/04 11:51:08;;;;;;;10.85;4.25;;;717.10;1331.20;;;;;;5095406;28;20036;-56
2021/11/04 11:53:41;;;;;;;8.93;3.70;;;691.60;1382.40;;;;;;5096915;28;20017;-58
2021/11/04 11:56:23;;;;;;;6.57;3.40;;;666.30;1433.60;;;;;;5096489;28;20442;-57
2021/11/04 11:58:50;;;;;;;11.52;3.40;;;665.60;1510.40;;;;;;5096225;28;20027;-57
2021/11/04 12:01:19;;;;;;;6.53;2.60;;;640.70;1536.00;;;;;;5096472;28;20040;-57
2021/11/04 12:03:57;;;;;;;5.43;2.10;;;640.00;1587.20;;;;;;5095911;28;20035;-57
2021/11/04 12:06:23;;;;;;;8.48;3.30;;;615.00;1638.40;;;;;;5096506;28;20020;-57
2021/11/04 12:08:59;;;;;;;6.70;3.00;;;614.70;1689.60;;;;;;5095909;28;20032;-57
2021/11/04 12:11:34;;;;;;;8.13;3.35;;;614.40;1715.20;;;;;;5095000;28;20028;-57
2021/11/04 12:14:15;;;;;;;8.18;3.60;;;589.60;1740.80;;;;;;5095162;28;20420;-57
2021/11/04 12:17:05;;;;;;;3.78;1.90;;;589.10;1766.40;;;;;;5096188;28;20492;-56